Time;durP1;ratioP1;P1;durP2;ratioP2;P2;SDS_P1;SDS_P2;PMS_P1;PMS_P2;Temp;Humidity;BMP_temperature;BMP_pressure;BME280_temperature;BME280_humidity;BME280_pressure;Samples;Min_cycle;Max_cycle;Signal;HPM_P1;HPM_P2
2021/05/31 00:00:59;;;;;;;3.88;2.63;;;11.60;66.10;;;;;;4958105;28;20043;-71
2021/05/31 00:03:24;;;;;;;3.05;2.38;;;11.60;99.90;;;;;;4959917;29;20034;-73
2021/05/31 00:05:50;;;;;;;4.18;2.13;;;11.50;99.90;;;;;;4960879;29;20455;-72
2021/05/31 00:08:15;;;;;;;5.35;2.92;;;11.40;99.90;;;;;;4957690;29;20110;-74
2021/05/31 00:10:41;;;;;;;3.33;2.15;;;11.40;99.90;;;;;;4957066;28;20027;-71
2021/05/31 00:13:07;;;;;;;4.68;2.85;;;11.40;99.90;;;;;;4956578;29;20400;-73
2021/05/31 00:15:32;;;;;;;2.80;2.10;;;11.40;1.00;;;;;;4956987;29;20556;-73
2021/05/31 00:17:58;;;;;;;2.90;2.58;;;11.40;99.90;;;;;;4957874;29;20027;-73
2021/05/31 00:20:24;;;;;;;3.83;2.42;;;11.30;99.90;;;;;;4956790;28;20020;-73
2021/05/31 00:22:50;;;;;;;4.97;2.92;;;11.30;1.00;;;;;;4957847;29;20058;-74
2021/05/31 00:25:16;;;;;;;3.50;2.90;;;11.30;99.90;;;;;;4961111;29;20205;-73
2021/05/31 00:27:42;;;;;;;2.38;2.05;;;11.20;99.90;;;;;;4956148;28;20058;-73
2021/05/31 00:30:10;;;;;;;3.25;1.98;;;11.40;99.90;;;;;;4956656;28;20038;-74
2021/05/31 00:32:36;;;;;;;2.65;2.28;;;11.40;99.10;;;;;;4956388;28;20027;-74
2021/05/31 00:35:02;;;;;;;3.25;2.13;;;11.50;99.90;;;;;;4956710;28;20107;-73
2021/05/31 00:37:28;;;;;;;3.60;2.05;;;11.80;99.90;;;;;;4955724;28;20027;-73
2021/05/31 00:39:53;;;;;;;3.90;2.47;;;12.10;99.90;;;;;;4971086;28;20082;-72
2021/05/31 00:42:19;;;;;;;2.67;1.90;;;12.30;99.90;;;;;;4956124;29;20029;-73
2021/05/31 00:44:45;;;;;;;3.30;1.90;;;12.50;66.90;;;;;;4956426;29;20031;-72
2021/05/31 00:47:10;;;;;;;2.88;2.47;;;12.50;82.70;;;;;;4956150;29;20027;-72
2021/05/31 00:49:38;;;;;;;2.67;1.75;;;12.60;71.10;;;;;;4955940;28;20027;-72
2021/05/31 00:52:08;;;;;;;3.22;1.63;;;12.50;65.30;;;;;;4954515;28;20054;-72
2021/05/31 00:54:34;;;;;;;3.65;1.70;;;12.50;54.70;;;;;;4955865;28;20494;-72
2021/05/31 00:57:01;;;;;;;4.68;2.20;;;12.30;72.50;;;;;;4955887;28;20024;-73
2021/05/31 00:59:26;;;;;;;2.50;1.50;;;12.30;70.70;;;;;;4956314;28;20027;-73
2021/05/31 01:01:52;;;;;;;2.63;1.58;;;12.40;52.40;;;;;;4955272;28;20480;-73
2021/05/31 01:04:19;;;;;;;3.00;1.98;;;12.40;58.80;;;;;;4955650;28;20031;-72
2021/05/31 01:06:55;;;;;;;3.20;1.70;;;12.20;66.00;;;;;;4955731;28;20472;-72
2021/05/31 01:09:28;;;;;;;2.97;1.95;;;12.00;94.30;;;;;;4956192;28;20028;-73
2021/05/31 01:12:07;;;;;;;3.33;1.95;;;11.80;99.90;;;;;;4955933;28;20027;-72
2021/05/31 01:15:00;;;;;;;2.25;1.83;;;11.70;99.90;;;;;;4955404;28;20023;-71
2021/05/31 01:17:51;;;;;;;2.50;1.80;;;11.70;99.90;;;;;;4970109;28;20030;-73
2021/05/31 01:20:37;;;;;;;6.15;1.80;;;12.10;93.00;;;;;;4970122;28;20027;-73
2021/05/31 01:23:07;;;;;;;5.25;2.00;;;12.10;98.00;;;;;;4955547;28;20027;-73
2021/05/31 01:25:50;;;;;;;3.13;2.33;;;12.20;93.50;;;;;;4955279;28;20058;-73
2021/05/31 01:28:31;;;;;;;4.40;1.55;;;12.20;93.00;;;;;;4955061;28;20106;-72
2021/05/31 01:30:58;;;;;;;;;;;12.30;72.40;;;;;;4955385;28;20522;-72
2021/05/31 01:33:30;;;;;;;3.60;1.83;;;12.30;80.20;;;;;;4955207;28;19910;-72
2021/05/31 01:35:57;;;;;;;5.38;2.72;;;12.20;92.30;;;;;;4954735;28;20034;-72
2021/05/31 01:38:25;;;;;;;2.70;2.00;;;12.20;96.90;;;;;;4954752;28;20023;-74
2021/05/31 01:40:52;;;;;;;2.90;2.08;;;12.10;99.90;;;;;;4954777;28;20023;-73
2021/05/31 01:43:18;;;;;;;4.30;2.15;;;12.10;99.90;;;;;;4954642;29;20369;-72
2021/05/31 01:45:44;;;;;;;3.20;2.55;;;12.00;99.90;;;;;;4954627;28;20034;-71
2021/05/31 01:48:11;;;;;;;2.38;1.92;;;11.90;99.90;;;;;;4954543;28;20042;-73
2021/05/31 01:50:38;;;;;;;4.93;2.20;;;11.70;99.90;;;;;;4954743;28;20102;-73
2021/05/31 01:53:04;;;;;;;2.17;1.70;;;11.70;99.90;;;;;;4969678;28;20027;-72
2021/05/31 01:55:32;;;;;;;3.30;2.05;;;11.60;99.90;;;;;;4954907;28;20023;-72
2021/05/31 01:57:59;;;;;;;4.57;2.00;;;11.70;99.90;;;;;;4954618;28;20039;-73
2021/05/31 02:00:24;;;;;;;2.05;1.90;;;11.70;99.90;;;;;;4976252;23;20058;-80
2021/05/31 02:02:51;;;;;;;6.25;2.05;;;11.50;99.90;;;;;;4991937;28;20022;-79
2021/05/31 02:05:18;;;;;;;3.67;2.33;;;11.30;99.90;;;;;;4993470;28;20054;-79
2021/05/31 02:07:43;;;;;;;2.55;1.98;;;11.20;1.00;;;;;;4992329;28;20479;-79
2021/05/31 02:10:11;;;;;;;3.03;2.67;;;11.00;7.00;;;;;;4993181;28;20114;-79
2021/05/31 02:12:50;;;;;;;1.92;1.75;;;11.00;99.90;;;;;;4993200;28;20022;-79
2021/05/31 02:15:21;;;;;;;2.30;1.80;;;11.00;99.90;;;;;;4992675;28;20499;-79
2021/05/31 02:17:49;;;;;;;2.17;1.98;;;10.90;99.90;;;;;;4993612;28;20390;-78
2021/05/31 02:20:18;;;;;;;3.03;1.95;;;10.80;99.90;;;;;;4993198;28;20096;-80
2021/05/31 02:22:48;;;;;;;3.47;3.08;;;10.70;99.90;;;;;;4993190;28;20042;-79
2021/05/31 02:25:15;;;;;;;3.37;2.20;;;10.60;1.00;;;;;;4992720;28;20023;-78
2021/05/31 02:27:46;;;;;;;5.03;2.58;;;10.60;99.90;;;;;;4993711;28;20026;-79
2021/05/31 02:30:12;;;;;;;3.72;2.17;;;10.50;99.90;;;;;;4993949;28;20018;-79
2021/05/31 02:32:38;;;;;;;2.63;2.03;;;10.40;99.90;;;;;;5009436;28;20041;-80
2021/05/31 02:35:10;;;;;;;3.25;2.22;;;10.40;99.90;;;;;;4994404;28;20419;-79
2021/05/31 02:37:39;;;;;;;2.40;2.15;;;10.30;1.00;;;;;;4994609;28;20034;-79
2021/05/31 02:40:07;;;;;;;2.17;1.98;;;10.20;1.00;;;;;;5010988;28;20025;-78
2021/05/31 02:42:40;;;;;;;4.13;2.58;;;10.10;1.00;;;;;;4993278;28;20026;-79
2021/05/31 02:45:07;;;;;;;3.67;2.35;;;10.00;99.90;;;;;;4992547;28;20026;-80
2021/05/31 02:47:32;;;;;;;3.53;2.20;;;10.10;99.90;;;;;;4993591;28;20027;-79
2021/05/31 02:49:58;;;;;;;2.60;2.30;;;10.00;99.90;;;;;;4991682;28;20498;-80
2021/05/31 02:52:23;;;;;;;2.22;1.85;;;10.00;1.00;;;;;;4993702;28;20421;-79
2021/05/31 02:54:49;;;;;;;3.50;1.98;;;10.20;99.90;;;;;;4991919;28;20129;-79
2021/05/31 02:57:14;;;;;;;4.70;2.30;;;10.10;1.00;;;;;;4991745;28;20403;-79
2021/05/31 02:59:40;;;;;;;4.40;2.55;;;10.00;89.60;;;;;;4992819;28;20025;-80
2021/05/31 03:02:05;;;;;;;2.78;2.20;;;10.00;99.90;;;;;;4996279;28;20031;-81
2021/05/31 03:04:31;;;;;;;6.13;2.45;;;9.90;99.90;;;;;;4998259;28;20030;-79
2021/05/31 03:06:56;;;;;;;2.47;2.22;;;9.80;99.90;;;;;;5012168;28;20379;-79
2021/05/31 03:09:22;;;;;;;5.80;2.40;;;9.80;1.00;;;;;;4996748;28;20053;-78
2021/05/31 03:11:48;;;;;;;6.03;2.60;;;9.70;1.00;;;;;;4996906;28;20482;-79
2021/05/31 03:14:13;;;;;;;4.15;2.88;;;9.80;99.90;;;;;;4997044;28;20026;-80
2021/05/31 03:16:39;;;;;;;2.90;2.20;;;9.70;99.90;;;;;;4996843;28;20084;-79
2021/05/31 03:19:05;;;;;;;7.15;3.05;;;9.70;1.00;;;;;;4996395;28;20025;-79
2021/05/31 03:21:30;;;;;;;6.85;3.13;;;9.80;43.10;;;;;;4996483;28;20023;-79
2021/05/31 03:23:56;;;;;;;10.60;2.90;;;9.80;1.00;;;;;;5012117;28;20029;-79
2021/05/31 03:26:21;;;;;;;5.70;2.53;;;9.80;1.00;;;;;;4996552;28;20038;-79
2021/05/31 03:28:47;;;;;;;11.93;3.35;;;9.80;92.00;;;;;;4996116;28;20117;-79
2021/05/31 03:31:12;;;;;;;5.65;2.63;;;9.70;67.10;;;;;;4996497;28;20033;-79
2021/05/31 03:33:38;;;;;;;4.25;2.20;;;9.70;99.90;;;;;;4996905;28;20077;-79
2021/05/31 03:36:04;;;;;;;5.10;2.40;;;9.70;99.90;;;;;;4996077;28;20475;-79
2021/05/31 03:38:30;;;;;;;8.07;2.83;;;9.70;69.60;;;;;;4996410;28;20456;-79
2021/05/31 03:40:55;;;;;;;4.22;2.83;;;10.00;99.90;;;;;;4996266;28;20072;-79
2021/05/31 03:43:21;;;;;;;8.35;3.88;;;10.10;17.20;;;;;;4996464;28;20120;-80
2021/05/31 03:45:47;;;;;;;7.75;3.35;;;10.20;1.00;;;;;;4996235;28;20050;-80
2021/05/31 03:48:13;;;;;;;9.15;3.42;;;10.20;1.00;;;;;;4996955;28;20068;-79
2021/05/31 03:50:39;;;;;;;3.83;2.83;;;10.20;1.00;;;;;;4995108;28;20031;-79
2021/05/31 03:53:04;;;;;;;6.00;3.35;;;10.30;99.90;;;;;;4996443;28;20064;-80
2021/05/31 03:55:30;;;;;;;4.72;2.53;;;10.40;99.90;;;;;;4995819;28;20022;-79
2021/05/31 03:57:56;;;;;;;4.45;2.78;;;10.40;99.90;;;;;;4996416;28;20105;-80
2021/05/31 04:00:22;;;;;;;3.83;2.45;;;10.50;99.90;;;;;;4996081;28;20379;-80
2021/05/31 04:02:48;;;;;;;5.38;2.35;;;10.50;99.90;;;;;;4995946;28;20428;-79
2021/05/31 04:05:15;;;;;;;3.00;2.35;;;10.70;1.00;;;;;;4995914;28;20034;-79
2021/05/31 04:13:10;;;;;;;3.33;2.40;;;11.30;1.00;;;;;;4996008;28;20126;-79
2021/05/31 04:15:35;;;;;;;2.90;2.20;;;11.50;21.70;;;;;;5011198;28;20297;-79
2021/05/31 04:18:01;;;;;;;9.70;2.67;;;11.90;1.00;;;;;;4994648;28;20034;-79
2021/05/31 04:20:27;;;;;;;5.15;2.33;;;12.00;99.90;;;;;;5010700;28;20026;-80
2021/05/31 04:22:52;;;;;;;3.50;2.50;;;12.20;1.00;;;;;;5011040;28;20061;-79
2021/05/31 04:25:21;;;;;;;4.78;2.15;;;12.80;99.90;;;;;;4995830;28;20026;-78
2021/05/31 04:27:47;;;;;;;2.55;1.98;;;13.20;99.90;;;;;;4994941;28;20533;-79
2021/05/31 04:30:13;;;;;;;4.65;2.45;;;13.30;99.90;;;;;;4996822;28;20022;-80
2021/05/31 04:32:38;;;;;;;2.63;2.10;;;13.40;99.90;;;;;;4994335;28;20023;-80
2021/05/31 04:35:04;;;;;;;2.88;1.85;;;13.30;75.30;;;;;;4993842;28;20033;-79
2021/05/31 04:37:33;;;;;;;5.97;2.40;;;13.50;12.80;;;;;;4995276;28;20114;-81
2021/05/31 04:39:58;;;;;;;4.57;2.47;;;13.80;1.00;;;;;;5010373;28;20022;-79
2021/05/31 04:42:24;;;;;;;3.88;2.13;;;14.40;1.00;;;;;;4995890;28;20109;-79
2021/05/31 04:44:49;;;;;;;5.88;2.20;;;14.30;99.90;;;;;;4995374;28;20060;-80
2021/05/31 04:47:15;;;;;;;6.13;2.53;;;14.40;99.90;;;;;;5010728;28;20483;-78
2021/05/31 04:49:40;;;;;;;2.30;2.10;;;14.90;99.90;;;;;;4995083;28;20033;-79
2021/05/31 04:52:06;;;;;;;4.15;2.42;;;15.30;99.90;;;;;;4993497;28;20109;-79
2021/05/31 04:54:31;;;;;;;4.60;1.90;;;15.60;99.90;;;;;;4993426;28;20418;-79
2021/05/31 04:56:57;;;;;;;2.45;2.13;;;15.60;99.90;;;;;;4993007;28;20022;-79
2021/05/31 04:59:23;;;;;;;3.40;2.08;;;15.70;99.90;;;;;;4995222;28;20030;-79
2021/05/31 05:01:48;;;;;;;3.25;2.10;;;15.80;99.90;;;;;;4993447;28;20038;-79
2021/05/31 05:04:14;;;;;;;3.78;1.92;;;16.10;99.90;;;;;;4993915;28;20037;-79
2021/05/31 05:06:41;;;;;;;2.83;1.77;;;16.30;99.90;;;;;;4993671;28;20030;-79
2021/05/31 05:09:06;;;;;;;2.38;1.98;;;16.70;99.90;;;;;;4994560;28;20029;-79
2021/05/31 05:11:32;;;;;;;4.88;1.77;;;17.50;10.30;;;;;;4994300;28;20027;-80
2021/05/31 05:13:57;;;;;;;3.95;2.10;;;17.50;1.00;;;;;;4994683;28;20105;-78
2021/05/31 05:16:23;;;;;;;3.67;2.25;;;17.60;1.00;;;;;;4995234;28;20398;-79
2021/05/31 05:18:50;;;;;;;2.33;1.85;;;17.50;1.00;;;;;;4994701;28;20018;-79
2021/05/31 05:21:17;;;;;;;5.68;3.33;;;17.40;1.00;;;;;;4993174;28;20030;-78
2021/05/31 05:23:47;;;;;;;5.22;2.58;;;17.70;1.00;;;;;;4994249;28;20471;-80
2021/05/31 05:26:13;;;;;;;3.90;2.33;;;18.10;1.00;;;;;;4994366;28;20029;-79
2021/05/31 05:28:39;;;;;;;3.83;2.15;;;18.30;1.00;;;;;;4993138;28;20026;-80
2021/05/31 05:31:07;;;;;;;3.15;2.30;;;18.30;1.00;;;;;;4993022;28;20134;-79
2021/05/31 05:33:39;;;;;;;3.70;2.45;;;18.40;1.00;;;;;;4994637;28;20057;-79
2021/05/31 05:36:23;;;;;;;2.80;2.28;;;18.20;1.00;;;;;;4993896;28;20046;-79
2021/05/31 05:39:57;;;;;;;3.83;2.53;;;18.80;1.00;;;;;;4994240;28;20038;-80
2021/05/31 05:49:39;;;;;;;4.68;2.50;;;21.10;1.00;;;;;;4994485;28;20029;-79
2021/05/31 05:52:06;;;;;;;3.30;2.00;;;20.10;1.00;;;;;;4992873;28;20116;-79
2021/05/31 05:54:31;;;;;;;4.93;2.60;;;20.80;1.00;;;;;;5009366;28;20058;-80
2021/05/31 05:56:57;;;;;;;3.33;2.85;;;20.20;1.00;;;;;;4993665;28;20033;-79
2021/05/31 05:59:22;;;;;;;5.78;3.60;;;20.80;1.00;;;;;;4994497;28;20026;-80
2021/05/31 06:01:50;;;;;;;3.42;2.50;;;20.30;1.00;;;;;;5008934;28;20045;-80
2021/05/31 06:04:16;;;;;;;6.70;2.55;;;20.80;1.00;;;;;;5008715;28;20233;-80
2021/05/31 06:06:43;;;;;;;3.40;2.70;;;20.90;1.00;;;;;;4992968;28;20143;-79
2021/05/31 06:09:12;;;;;;;4.65;3.50;;;20.80;1.00;;;;;;5008761;28;20379;-79
2021/05/31 06:11:38;;;;;;;2.72;2.25;;;20.00;1.00;;;;;;4993982;28;20022;-79
2021/05/31 06:14:04;;;;;;;2.42;2.17;;;19.80;1.00;;;;;;4995138;28;20026;-79
2021/05/31 06:16:29;;;;;;;3.25;2.80;;;19.10;1.00;;;;;;4995420;28;20426;-80
2021/05/31 06:18:55;;;;;;;2.80;2.20;;;18.70;1.00;;;;;;4995456;28;20522;-78
2021/05/31 06:21:20;;;;;;;4.07;2.47;;;19.50;1.00;;;;;;4993852;28;20026;-78
2021/05/31 06:23:46;;;;;;;3.00;2.30;;;18.80;1.00;;;;;;4992575;28;20026;-79
2021/05/31 06:26:12;;;;;;;3.00;2.47;;;18.10;1.00;;;;;;5008628;28;20045;-79
2021/05/31 06:28:38;;;;;;;3.22;2.50;;;17.80;1.00;;;;;;4993725;28;20171;-78
2021/05/31 06:31:03;;;;;;;5.65;2.40;;;16.90;1.00;;;;;;4993910;28;20027;-80
2021/05/31 06:33:30;;;;;;;2.78;2.00;;;16.20;1.00;;;;;;4993690;28;20426;-79
2021/05/31 06:35:56;;;;;;;3.08;2.78;;;15.80;1.00;;;;;;4995616;28;20034;-79
2021/05/31 06:38:22;;;;;;;3.42;2.67;;;16.10;1.00;;;;;;4996734;28;20022;-79
2021/05/31 06:40:47;;;;;;;5.20;2.38;;;16.30;1.00;;;;;;4996084;28;20038;-79
2021/05/31 06:43:13;;;;;;;3.00;2.30;;;16.60;1.00;;;;;;4996158;28;20045;-81
2021/05/31 06:45:39;;;;;;;3.78;2.25;;;16.60;1.00;;;;;;4997378;28;20033;-79
2021/05/31 06:48:06;;;;;;;2.85;2.00;;;16.50;1.00;;;;;;5013008;28;20479;-79
2021/05/31 06:50:33;;;;;;;2.38;1.92;;;16.10;1.00;;;;;;4996239;28;20134;-78
2021/05/31 06:53:02;;;;;;;2.97;2.17;;;16.30;1.00;;;;;;4997676;28;20026;-79
2021/05/31 06:55:30;;;;;;;2.40;2.20;;;16.50;1.00;;;;;;5012132;28;20390;-79
2021/05/31 06:57:57;;;;;;;6.15;2.13;;;16.50;1.00;;;;;;4998196;28;20029;-78
2021/05/31 07:00:24;;;;;;;2.92;1.80;;;16.70;1.00;;;;;;5001430;28;20034;-79
2021/05/31 07:02:51;;;;;;;5.55;2.40;;;16.70;1.00;;;;;;5007489;28;20026;-79
2021/05/31 07:05:17;;;;;;;3.53;2.83;;;16.90;1.00;;;;;;5015312;28;20022;-78
2021/05/31 07:07:42;;;;;;;5.22;2.20;;;17.10;1.00;;;;;;5030526;28;20033;-78
2021/05/31 07:10:11;;;;;;;2.63;1.83;;;17.00;1.00;;;;;;5015473;28;20090;-79
2021/05/31 07:12:38;;;;;;;2.22;1.83;;;17.00;1.00;;;;;;5032576;28;20014;-78
2021/05/31 07:15:05;;;;;;;2.55;2.00;;;16.90;1.00;;;;;;5016191;28;20027;-78
2021/05/31 07:17:36;;;;;;;1.95;1.75;;;16.90;1.00;;;;;;5015989;28;20065;-78
2021/05/31 07:20:46;;;;;;;3.28;1.88;;;16.90;1.00;;;;;;5015678;28;20026;-78
2021/05/31 07:23:19;;;;;;;2.42;2.05;;;16.90;1.00;;;;;;5015419;28;20031;-78
2021/05/31 07:25:48;;;;;;;5.15;2.00;;;16.80;1.00;;;;;;5016096;28;20026;-78
2021/05/31 07:28:14;;;;;;;4.50;2.45;;;17.00;1.00;;;;;;5009289;28;20030;-79
2021/05/31 07:30:40;;;;;;;2.45;2.20;;;17.20;1.00;;;;;;4999036;28;20384;-79
2021/05/31 07:33:10;;;;;;;4.40;2.20;;;17.10;1.00;;;;;;4998235;28;20031;-79
2021/05/31 07:35:36;;;;;;;2.70;2.50;;;17.20;1.00;;;;;;5012124;28;20061;-81
2021/05/31 07:38:02;;;;;;;3.42;1.92;;;17.40;1.00;;;;;;4998237;28;20560;-79
2021/05/31 07:40:28;;;;;;;4.38;2.85;;;17.40;1.00;;;;;;4998117;28;20027;-79
2021/05/31 07:42:54;;;;;;;5.43;2.28;;;17.40;1.00;;;;;;4996970;28;20023;-78
2021/05/31 07:45:19;;;;;;;2.67;1.90;;;17.60;1.00;;;;;;4996223;28;20031;-79
2021/05/31 07:47:46;;;;;;;9.05;1.90;;;17.60;1.00;;;;;;5011747;28;20022;-79
2021/05/31 07:50:13;;;;;;;2.28;1.60;;;17.70;1.00;;;;;;4995400;28;20345;-79
2021/05/31 07:52:39;;;;;;;4.05;1.88;;;17.70;1.00;;;;;;4995498;28;20135;-80
2021/05/31 07:55:08;;;;;;;46.90;9.10;;;17.70;1.00;;;;;;4995891;28;20058;-79
2021/05/31 07:57:33;;;;;;;1.70;1.60;;;17.80;1.00;;;;;;4995556;28;20517;-79
2021/05/31 07:59:59;;;;;;;5.93;2.65;;;18.00;1.00;;;;;;4996328;28;20030;-80
2021/05/31 08:02:25;;;;;;;1.75;1.40;;;18.10;1.00;;;;;;5000450;28;20038;-77
2021/05/31 08:04:54;;;;;;;1.55;1.45;;;18.10;1.00;;;;;;4998495;28;20022;-78
2021/05/31 08:07:19;;;;;;;2.55;1.65;;;18.10;1.00;;;;;;4998078;28;20093;-79
2021/05/31 08:09:45;;;;;;;2.15;1.25;;;18.20;1.00;;;;;;4998466;28;20030;-78
2021/05/31 08:12:11;;;;;;;2.17;1.98;;;18.20;1.00;;;;;;4998547;28;20045;-80
2021/05/31 08:14:37;;;;;;;6.88;1.70;;;18.20;1.00;;;;;;5014061;28;20125;-79
2021/05/31 08:17:11;;;;;;;2.35;1.65;;;18.10;1.00;;;;;;4998611;28;20018;-79
2021/05/31 08:19:37;;;;;;;3.08;1.52;;;18.50;1.00;;;;;;4998553;28;20094;-79
2021/05/31 08:22:04;;;;;;;3.15;2.38;;;18.70;1.00;;;;;;5012960;28;20023;-78
2021/05/31 08:24:30;;;;;;;1.40;1.30;;;18.50;1.00;;;;;;4998024;28;20105;-79
2021/05/31 08:26:56;;;;;;;2.75;1.65;;;18.70;1.00;;;;;;4998574;28;20053;-79
2021/05/31 08:29:24;;;;;;;4.35;1.65;;;18.70;1.00;;;;;;4997156;28;20529;-78
2021/05/31 08:31:51;;;;;;;1.58;1.48;;;18.50;1.00;;;;;;4998467;28;20069;-80
2021/05/31 08:34:18;;;;;;;1.90;1.63;;;18.60;1.00;;;;;;4997636;28;20028;-80
2021/05/31 08:36:45;;;;;;;3.15;1.45;;;18.70;1.00;;;;;;4998833;28;20026;-78
2021/05/31 08:39:11;;;;;;;3.67;1.80;;;18.40;1.00;;;;;;4997682;28;20015;-78
2021/05/31 08:41:38;;;;;;;1.75;1.27;;;18.70;1.00;;;;;;4998608;28;20371;-78
2021/05/31 08:44:04;;;;;;;2.17;1.65;;;18.60;1.00;;;;;;4999190;28;20160;-78
2021/05/31 08:46:29;;;;;;;2.00;1.42;;;18.60;1.00;;;;;;4998242;28;20037;-78
2021/05/31 08:48:59;;;;;;;21.95;3.33;;;18.60;1.00;;;;;;4998413;28;20026;-79
2021/05/31 08:51:25;;;;;;;3.95;2.03;;;18.70;1.00;;;;;;4997570;28;20094;-79
2021/05/31 08:53:57;;;;;;;1.77;1.50;;;19.00;1.00;;;;;;4998498;28;20030;-79
2021/05/31 08:56:22;;;;;;;3.90;1.48;;;19.00;1.00;;;;;;5013566;28;20022;-80
2021/05/31 08:58:49;;;;;;;4.35;1.65;;;19.20;1.00;;;;;;4997118;28;20019;-78
2021/05/31 09:01:18;;;;;;;30.05;5.30;;;19.00;1.00;;;;;;4997441;28;20512;-79
2021/05/31 09:03:44;;;;;;;19.25;3.03;;;19.20;1.00;;;;;;5012305;28;20041;-79
2021/05/31 09:06:13;;;;;;;1.63;1.52;;;19.20;1.00;;;;;;4997895;28;20141;-78
2021/05/31 09:08:59;;;;;;;6.88;2.15;;;19.30;1.00;;;;;;4997428;28;20030;-78
2021/05/31 09:11:27;;;;;;;1.45;1.35;;;19.10;1.00;;;;;;4997358;28;20030;-79
2021/05/31 09:13:53;;;;;;;1.45;1.17;;;19.40;1.00;;;;;;4998187;28;20395;-78
2021/05/31 09:16:30;;;;;;;4.75;1.90;;;19.50;1.00;;;;;;4997668;28;20049;-79
2021/05/31 09:19:02;;;;;;;5.13;1.52;;;19.40;1.00;;;;;;4998948;28;20495;-77
2021/05/31 09:21:36;;;;;;;1.52;1.42;;;19.40;1.00;;;;;;4997076;28;20513;-79
2021/05/31 09:24:04;;;;;;;1.45;1.30;;;19.40;1.00;;;;;;4997711;28;20041;-79
2021/05/31 09:26:31;;;;;;;2.97;1.80;;;19.40;1.00;;;;;;4996796;28;20026;-78
2021/05/31 09:29:02;;;;;;;2.08;1.40;;;19.60;1.00;;;;;;4997976;28;20030;-76
2021/05/31 09:31:29;;;;;;;1.48;1.38;;;19.50;1.00;;;;;;4997504;28;20022;-79
2021/05/31 09:33:56;;;;;;;5.18;1.58;;;19.40;1.00;;;;;;4997082;28;20101;-79
2021/05/31 09:36:22;;;;;;;3.13;1.75;;;19.40;1.00;;;;;;4996957;28;20027;-80
2021/05/31 09:38:52;;;;;;;3.22;1.30;;;19.20;1.00;;;;;;4996645;28;20150;-78
2021/05/31 09:41:26;;;;;;;3.50;1.45;;;19.20;1.00;;;;;;4996136;28;20045;-79
2021/05/31 09:43:58;;;;;;;3.85;2.05;;;19.30;1.00;;;;;;4995627;28;20030;-79
2021/05/31 09:46:56;;;;;;;1.92;1.50;;;19.40;1.00;;;;;;4997970;28;20023;-78
2021/05/31 09:49:26;;;;;;;1.45;1.35;;;19.60;1.00;;;;;;4995452;28;20038;-79
2021/05/31 09:52:06;;;;;;;1.85;1.10;;;19.10;1.00;;;;;;4996422;28;20033;-79
2021/05/31 09:54:45;;;;;;;3.40;1.52;;;19.50;1.00;;;;;;5011289;28;20030;-78
2021/05/31 09:57:24;;;;;;;2.47;1.30;;;19.60;1.00;;;;;;4998214;28;20027;-78
2021/05/31 10:00:51;;;;;;;1.83;1.40;;;19.60;1.00;;;;;;4995953;28;20022;-79
2021/05/31 10:08:17;;;;;;;1.33;1.23;;;19.50;1.00;;;;;;4998653;28;20348;-79
2021/05/31 10:10:47;;;;;;;2.60;1.45;;;19.40;1.00;;;;;;4996731;28;20029;-79
2021/05/31 10:13:18;;;;;;;1.85;1.33;;;19.50;1.00;;;;;;5011483;28;20550;-78
2021/05/31 10:15:43;;;;;;;3.70;1.70;;;19.40;1.00;;;;;;4996081;28;20041;-78
2021/05/31 10:18:17;;;;;;;2.78;1.48;;;19.70;1.00;;;;;;4995147;28;20261;-79
2021/05/31 10:20:43;;;;;;;3.03;1.25;;;19.80;1.00;;;;;;5011102;28;20022;-79
2021/05/31 10:23:11;;;;;;;2.67;1.45;;;19.70;1.00;;;;;;5012132;28;20153;-81
2021/05/31 10:25:44;;;;;;;2.30;1.60;;;19.60;1.00;;;;;;4995796;28;20089;-80
2021/05/31 10:28:39;;;;;;;2.70;1.70;;;19.70;1.00;;;;;;4996533;28;20022;-79
2021/05/31 10:31:07;;;;;;;4.20;1.80;;;19.90;1.00;;;;;;4996369;28;20114;-78
2021/05/31 10:33:38;;;;;;;1.42;1.33;;;19.90;1.00;;;;;;4995015;28;20026;-78
2021/05/31 10:36:20;;;;;;;2.65;1.50;;;20.00;1.00;;;;;;4996424;28;20105;-79
2021/05/31 10:38:50;;;;;;;1.67;1.58;;;20.20;1.00;;;;;;4996226;28;20095;-78
2021/05/31 10:41:19;;;;;;;1.50;1.40;;;19.90;1.00;;;;;;4996354;28;20406;-79
2021/05/31 10:43:51;;;;;;;2.63;1.52;;;20.20;1.00;;;;;;4996531;28;20498;-80
2021/05/31 10:46:22;;;;;;;1.08;0.98;;;20.30;1.00;;;;;;4996077;28;20026;-78
2021/05/31 10:48:51;;;;;;;1.88;1.40;;;20.40;1.00;;;;;;5002961;28;20030;-77
2021/05/31 10:51:31;;;;;;;2.22;2.00;;;20.50;1.00;;;;;;5002667;28;20030;-79
2021/05/31 10:54:11;;;;;;;2.50;1.45;;;20.40;1.00;;;;;;4999905;28;20023;-79
2021/05/31 10:56:43;;;;;;;1.50;1.40;;;20.40;1.00;;;;;;4997080;28;20120;-78
2021/05/31 10:59:15;;;;;;;2.50;1.48;;;20.30;1.00;;;;;;5010783;28;20060;-79
2021/05/31 11:01:41;;;;;;;1.67;1.33;;;20.40;1.00;;;;;;4995523;28;20058;-79
2021/05/31 11:04:25;;;;;;;1.80;1.70;;;20.50;1.00;;;;;;5012475;28;20027;-78
2021/05/31 11:06:58;;;;;;;1.60;1.50;;;20.60;1.00;;;;;;4994636;28;20049;-78
2021/05/31 11:09:33;;;;;;;1.83;1.60;;;20.50;1.00;;;;;;4994259;28;20100;-78
2021/05/31 11:12:10;;;;;;;3.00;1.35;;;20.60;1.00;;;;;;4993856;28;20030;-79
2021/05/31 11:14:46;;;;;;;2.53;1.75;;;20.60;1.00;;;;;;4996286;28;20037;-79
2021/05/31 11:17:12;;;;;;;3.13;1.90;;;20.60;1.00;;;;;;4995935;28;20019;-79
2021/05/31 11:19:50;;;;;;;2.20;1.45;;;20.90;1.00;;;;;;4996348;28;20058;-79
2021/05/31 11:22:15;;;;;;;1.80;1.60;;;21.10;1.00;;;;;;4997105;28;20034;-79
2021/05/31 11:24:48;;;;;;;1.75;1.30;;;21.20;1.00;;;;;;4997300;28;20032;-77
2021/05/31 11:27:14;;;;;;;2.15;1.58;;;21.20;1.00;;;;;;4998776;28;20281;-80
2021/05/31 11:29:39;;;;;;;1.95;1.58;;;21.10;1.00;;;;;;4997913;28;20038;-79
2021/05/31 11:32:05;;;;;;;1.30;1.20;;;21.20;1.00;;;;;;4997757;28;20498;-80
2021/05/31 11:34:32;;;;;;;1.98;1.38;;;21.30;1.00;;;;;;4997479;28;20084;-79
2021/05/31 11:36:59;;;;;;;4.22;2.00;;;21.20;1.00;;;;;;4997538;28;20022;-78
2021/05/31 11:39:25;;;;;;;1.88;1.70;;;21.10;1.00;;;;;;4997216;28;20102;-78
2021/05/31 11:41:53;;;;;;;3.80;1.40;;;20.60;1.00;;;;;;4997710;28;20058;-79
2021/05/31 11:44:31;;;;;;;3.60;1.55;;;20.80;1.00;;;;;;4997884;28;20041;-78
2021/05/31 11:46:59;;;;;;;1.40;1.30;;;21.00;1.00;;;;;;5012746;28;20045;-78
2021/05/31 11:49:26;;;;;;;5.30;1.40;;;21.20;1.00;;;;;;4996764;28;20032;-79
2021/05/31 11:52:03;;;;;;;1.90;1.30;;;21.30;1.00;;;;;;4997501;28;20486;-79
2021/05/31 11:54:32;;;;;;;2.50;1.08;;;21.20;1.00;;;;;;4997413;28;20030;-78
2021/05/31 11:57:05;;;;;;;2.90;1.48;;;21.40;1.00;;;;;;5005133;28;20026;-77
2021/05/31 11:59:33;;;;;;;2.80;1.98;;;21.50;1.00;;;;;;5010570;28;20038;-77
2021/05/31 12:01:59;;;;;;;1.58;1.40;;;21.50;1.00;;;;;;5016599;28;20026;-77
2021/05/31 12:04:25;;;;;;;2.63;1.60;;;21.50;1.00;;;;;;5018811;28;20041;-78
2021/05/31 12:07:20;;;;;;;3.13;1.50;;;21.60;1.00;;;;;;5017709;28;20034;-77
2021/05/31 12:09:46;;;;;;;2.30;1.33;;;21.80;1.00;;;;;;5014011;28;20097;-78
2021/05/31 12:12:17;;;;;;;2.83;1.50;;;21.80;1.00;;;;;;4999741;28;20034;-77
2021/05/31 12:14:45;;;;;;;13.63;3.05;;;21.40;1.00;;;;;;4999218;28;20383;-78
2021/05/31 12:17:11;;;;;;;2.42;2.25;;;21.50;1.00;;;;;;4996836;28;20390;-79
2021/05/31 12:19:37;;;;;;;2.50;1.35;;;21.70;1.00;;;;;;4997096;28;20026;-78
2021/05/31 12:22:05;;;;;;;1.60;1.48;;;22.10;1.00;;;;;;4996787;28;20109;-78
2021/05/31 12:24:33;;;;;;;1.83;1.40;;;22.40;1.00;;;;;;4998889;28;20026;-79
2021/05/31 12:27:00;;;;;;;1.73;1.30;;;22.30;1.00;;;;;;4998409;28;20080;-78
2021/05/31 12:29:32;;;;;;;5.57;1.60;;;22.20;1.00;;;;;;4994857;28;20372;-79
2021/05/31 12:31:58;;;;;;;1.40;1.30;;;22.00;1.00;;;;;;5010810;28;20117;-79
2021/05/31 12:34:27;;;;;;;2.13;1.48;;;22.00;1.00;;;;;;5009754;28;20261;-78
2021/05/31 12:36:53;;;;;;;2.30;1.38;;;22.00;1.00;;;;;;4995905;28;20109;-77
2021/05/31 12:39:20;;;;;;;2.55;1.35;;;21.90;1.00;;;;;;5012028;28;20136;-78
2021/05/31 12:41:46;;;;;;;1.95;1.25;;;21.60;1.00;;;;;;5001612;28;20034;-78
2021/05/31 12:44:12;;;;;;;1.58;1.48;;;21.90;1.00;;;;;;5007709;28;20049;-78
2021/05/31 12:46:43;;;;;;;2.03;1.73;;;21.90;1.00;;;;;;5029997;28;20097;-78
2021/05/31 12:49:12;;;;;;;2.53;1.33;;;22.10;1.00;;;;;;5024253;28;20018;-78
2021/05/31 12:51:37;;;;;;;4.65;1.63;;;21.80;1.00;;;;;;5024780;28;20497;-78
2021/05/31 12:54:04;;;;;;;4.68;1.85;;;21.90;1.00;;;;;;5000841;28;20105;-77
2021/05/31 12:56:38;;;;;;;5.05;1.20;;;22.20;1.00;;;;;;4994241;28;20028;-79
2021/05/31 12:59:08;;;;;;;2.15;1.45;;;22.10;1.00;;;;;;4995291;28;20023;-77
2021/05/31 13:01:35;;;;;;;1.40;1.30;;;22.30;1.00;;;;;;4994921;28;20023;-78
2021/05/31 13:04:00;;;;;;;2.05;1.38;;;22.40;1.00;;;;;;4996099;28;20027;-79
2021/05/31 13:06:34;;;;;;;2.40;1.20;;;22.40;1.00;;;;;;5010742;28;20117;-79
2021/05/31 13:09:01;;;;;;;1.75;1.27;;;22.20;1.00;;;;;;4995043;28;20533;-78
2021/05/31 13:11:45;;;;;;;1.67;1.10;;;22.10;1.00;;;;;;4994312;28;20035;-78
2021/05/31 13:14:25;;;;;;;1.67;1.40;;;22.20;1.00;;;;;;4993830;28;20030;-78
2021/05/31 13:17:03;;;;;;;1.42;1.27;;;22.20;1.00;;;;;;4995727;28;20075;-78
2021/05/31 13:19:32;;;;;;;1.83;1.25;;;22.10;1.00;;;;;;4995086;28;20022;-78
2021/05/31 13:22:06;;;;;;;2.30;1.10;;;21.70;1.00;;;;;;4994453;28;20054;-80